Blundale, Georgia
Current Conditions -  °F | °C
As of 11:15 AM on Thursday 29 Jan 2015 (Local Time) from KSBO Reporting Station
Clear Clear  
Wind Chill: 11°   Ceiling: Unl
Heat Index: 11°   Visibility: 10mi
Dew Point: -11°   Wind: 9mph
Humidity: 21%   Direction: 170°S
Pressure: 30.35"   Gusts: NA
Location:  32.5371°N, 82.3457°W
Report Text: KSBO 291615Z AUTO 17008KT 10SM CLR 11/M11 A3035 RMK AO2
Loading
Personal Weather Stations






























Interactive Weather Map New forecast layout! Learn more

10-Day Weather Forecast

Advertisements
Track Severe Weather on mobile